sensor_id;sensor_type;location;lat;lon;timestamp;P1;durP1;ratioP1;P2;durP2;ratioP2
4122;SDS011;2075;51.062;6.920;2023-03-01T00:00:00;18.30;;;9.97;;
4122;SDS011;2075;51.062;6.920;2023-03-01T00:02:55;18.10;;;9.10;;
4122;SDS011;2075;51.062;6.920;2023-03-01T00:05:44;14.10;;;7.87;;
4122;SDS011;2075;51.062;6.920;2023-03-01T00:08:30;17.27;;;9.47;;
4122;SDS011;2075;51.062;6.920;2023-03-01T00:11:17;15.63;;;8.77;;
4122;SDS011;2075;51.062;6.920;2023-03-01T00:14:04;30.83;;;10.73;;
4122;SDS011;2075;51.062;6.920;2023-03-01T00:16:50;15.43;;;9.00;;
4122;SDS011;2075;51.062;6.920;2023-03-01T00:19:35;16.70;;;9.93;;
4122;SDS011;2075;51.062;6.920;2023-03-01T00:22:22;17.80;;;8.80;;
4122;SDS011;2075;51.062;6.920;2023-03-01T00:25:08;19.07;;;9.20;;
4122;SDS011;2075;51.062;6.920;2023-03-01T00:27:53;14.83;;;8.77;;
4122;SDS011;2075;51.062;6.920;2023-03-01T00:30:38;19.13;;;10.03;;
4122;SDS011;2075;51.062;6.920;2023-03-01T00:33:23;18.00;;;8.60;;
4122;SDS011;2075;51.062;6.920;2023-03-01T00:36:09;18.10;;;9.57;;
4122;SDS011;2075;51.062;6.920;2023-03-01T00:38:58;18.77;;;9.93;;
4122;SDS011;2075;51.062;6.920;2023-03-01T00:41:43;18.80;;;11.17;;
4122;SDS011;2075;51.062;6.920;2023-03-01T00:44:29;19.50;;;10.50;;
4122;SDS011;2075;51.062;6.920;2023-03-01T00:47:14;19.40;;;9.83;;
4122;SDS011;2075;51.062;6.920;2023-03-01T00:50:00;15.63;;;9.60;;
4122;SDS011;2075;51.062;6.920;2023-03-01T00:52:45;18.33;;;10.30;;
4122;SDS011;2075;51.062;6.920;2023-03-01T00:55:32;14.70;;;9.00;;
4122;SDS011;2075;51.062;6.920;2023-03-01T00:58:18;13.37;;;9.10;;
4122;SDS011;2075;51.062;6.920;2023-03-01T01:01:07;14.67;;;9.10;;
4122;SDS011;2075;51.062;6.920;2023-03-01T01:04:01;14.50;;;8.33;;
4122;SDS011;2075;51.062;6.920;2023-03-01T01:06:49;15.20;;;9.10;;
4122;SDS011;2075;51.062;6.920;2023-03-01T01:09:34;14.93;;;8.70;;
4122;SDS011;2075;51.062;6.920;2023-03-01T01:12:21;19.93;;;9.20;;
4122;SDS011;2075;51.062;6.920;2023-03-01T01:15:07;18.60;;;7.60;;
4122;SDS011;2075;51.062;6.920;2023-03-01T01:17:56;13.80;;;7.97;;
4122;SDS011;2075;51.062;6.920;2023-03-01T01:20:41;13.77;;;8.03;;
4122;SDS011;2075;51.062;6.920;2023-03-01T01:23:26;12.53;;;7.90;;
4122;SDS011;2075;51.062;6.920;2023-03-01T01:26:13;14.07;;;8.20;;
4122;SDS011;2075;51.062;6.920;2023-03-01T01:29:02;12.93;;;7.97;;
4122;SDS011;2075;51.062;6.920;2023-03-01T01:31:49;13.37;;;8.40;;
4122;SDS011;2075;51.062;6.920;2023-03-01T01:34:34;13.27;;;7.47;;
4122;SDS011;2075;51.062;6.920;2023-03-01T01:37:20;14.27;;;7.87;;
4122;SDS011;2075;51.062;6.920;2023-03-01T01:40:06;12.53;;;8.17;;
4122;SDS011;2075;51.062;6.920;2023-03-01T01:42:52;16.43;;;8.33;;
4122;SDS011;2075;51.062;6.920;2023-03-01T01:45:40;12.90;;;7.60;;
4122;SDS011;2075;51.062;6.920;2023-03-01T01:48:27;14.90;;;7.97;;
4122;SDS011;2075;51.062;6.920;2023-03-01T01:51:25;13.30;;;8.20;;
4122;SDS011;2075;51.062;6.920;2023-03-01T01:54:23;18.73;;;8.50;;
4122;SDS011;2075;51.062;6.920;2023-03-01T01:57:12;11.37;;;7.93;;
4122;SDS011;2075;51.062;6.920;2023-03-01T02:00:04;12.70;;;8.00;;
4122;SDS011;2075;51.062;6.920;2023-03-01T02:02:59;15.87;;;7.73;;
4122;SDS011;2075;51.062;6.920;2023-03-01T02:05:50;18.70;;;10.10;;
4122;SDS011;2075;51.062;6.920;2023-03-01T02:08:40;18.50;;;8.70;;
4122;SDS011;2075;51.062;6.920;2023-03-01T02:11:28;11.43;;;6.87;;
4122;SDS011;2075;51.062;6.920;2023-03-01T02:14:16;13.97;;;8.30;;
4122;SDS011;2075;51.062;6.920;2023-03-01T02:17:01;13.30;;;8.13;;
4122;SDS011;2075;51.062;6.920;2023-03-01T02:19:51;13.97;;;7.80;;
4122;SDS011;2075;51.062;6.920;2023-03-01T02:22:50;16.87;;;7.90;;
4122;SDS011;2075;51.062;6.920;2023-03-01T02:25:41;13.37;;;7.73;;
4122;SDS011;2075;51.062;6.920;2023-03-01T02:28:36;17.40;;;9.87;;
4122;SDS011;2075;51.062;6.920;2023-03-01T02:31:23;17.33;;;9.27;;
4122;SDS011;2075;51.062;6.920;2023-03-01T02:34:28;14.73;;;8.00;;
4122;SDS011;2075;51.062;6.920;2023-03-01T02:37:16;15.00;;;8.70;;
4122;SDS011;2075;51.062;6.920;2023-03-01T02:40:08;18.27;;;8.67;;
4122;SDS011;2075;51.062;6.920;2023-03-01T02:43:00;15.90;;;8.70;;
4122;SDS011;2075;51.062;6.920;2023-03-01T02:45:50;16.77;;;8.63;;
4122;SDS011;2075;51.062;6.920;2023-03-01T02:48:41;26.43;;;8.93;;
4122;SDS011;2075;51.062;6.920;2023-03-01T02:51:34;12.53;;;7.70;;
4122;SDS011;2075;51.062;6.920;2023-03-01T02:54:33;14.17;;;8.00;;
4122;SDS011;2075;51.062;6.920;2023-03-01T02:57:24;12.93;;;8.50;;
4122;SDS011;2075;51.062;6.920;2023-03-01T03:00:12;14.30;;;7.80;;
4122;SDS011;2075;51.062;6.920;2023-03-01T03:03:04;13.67;;;7.90;;
4122;SDS011;2075;51.062;6.920;2023-03-01T03:05:50;14.50;;;8.50;;
4122;SDS011;2075;51.062;6.920;2023-03-01T03:08:36;15.67;;;8.50;;
4122;SDS011;2075;51.062;6.920;2023-03-01T03:11:21;14.00;;;7.60;;
4122;SDS011;2075;51.062;6.920;2023-03-01T03:14:07;16.93;;;9.00;;
4122;SDS011;2075;51.062;6.920;2023-03-01T03:16:56;17.60;;;9.57;;
4122;SDS011;2075;51.062;6.920;2023-03-01T03:19:43;15.50;;;8.40;;
4122;SDS011;2075;51.062;6.920;2023-03-01T03:22:29;14.33;;;8.07;;
4122;SDS011;2075;51.062;6.920;2023-03-01T03:25:14;13.77;;;8.50;;
4122;SDS011;2075;51.062;6.920;2023-03-01T03:28:00;12.03;;;8.63;;
4122;SDS011;2075;51.062;6.920;2023-03-01T03:30:45;14.93;;;8.10;;
4122;SDS011;2075;51.062;6.920;2023-03-01T03:33:31;15.10;;;8.60;;
4122;SDS011;2075;51.062;6.920;2023-03-01T03:36:18;12.53;;;8.07;;
4122;SDS011;2075;51.062;6.920;2023-03-01T03:39:04;21.00;;;8.80;;
4122;SDS011;2075;51.062;6.920;2023-03-01T03:41:49;16.10;;;8.53;;
4122;SDS011;2075;51.062;6.920;2023-03-01T03:44:35;15.10;;;8.10;;
4122;SDS011;2075;51.062;6.920;2023-03-01T03:47:21;12.90;;;8.10;;
4122;SDS011;2075;51.062;6.920;2023-03-01T03:50:06;14.97;;;9.30;;
4122;SDS011;2075;51.062;6.920;2023-03-01T03:52:54;18.00;;;8.50;;
4122;SDS011;2075;51.062;6.920;2023-03-01T03:55:39;21.90;;;9.00;;
4122;SDS011;2075;51.062;6.920;2023-03-01T03:58:25;14.47;;;8.33;;
4122;SDS011;2075;51.062;6.920;2023-03-01T04:01:10;15.57;;;8.37;;
4122;SDS011;2075;51.062;6.920;2023-03-01T04:03:56;14.87;;;8.37;;
4122;SDS011;2075;51.062;6.920;2023-03-01T04:06:47;14.97;;;8.73;;
4122;SDS011;2075;51.062;6.920;2023-03-01T04:09:34;15.90;;;8.50;;
4122;SDS011;2075;51.062;6.920;2023-03-01T04:12:20;18.40;;;9.20;;
4122;SDS011;2075;51.062;6.920;2023-03-01T04:15:07;15.90;;;8.57;;
4122;SDS011;2075;51.062;6.920;2023-03-01T04:17:57;17.50;;;8.90;;
4122;SDS011;2075;51.062;6.920;2023-03-01T04:20:43;15.10;;;8.23;;
4122;SDS011;2075;51.062;6.920;2023-03-01T04:23:29;14.73;;;8.70;;
4122;SDS011;2075;51.062;6.920;2023-03-01T04:26:16;16.70;;;9.60;;
4122;SDS011;2075;51.062;6.920;2023-03-01T04:29:01;17.50;;;9.50;;
4122;SDS011;2075;51.062;6.920;2023-03-01T04:31:47;16.70;;;8.60;;
4122;SDS011;2075;51.062;6.920;2023-03-01T04:34:32;20.93;;;9.10;;
4122;SDS011;2075;51.062;6.920;2023-03-01T04:37:18;17.60;;;10.10;;
4122;SDS011;2075;51.062;6.920;2023-03-01T04:40:04;15.53;;;9.50;;
4122;SDS011;2075;51.062;6.920;2023-03-01T04:43:01;19.57;;;9.90;;
4122;SDS011;2075;51.062;6.920;2023-03-01T04:45:46;19.27;;;9.33;;
4122;SDS011;2075;51.062;6.920;2023-03-01T04:48:32;15.33;;;9.00;;
4122;SDS011;2075;51.062;6.920;2023-03-01T04:51:17;18.93;;;10.50;;
4122;SDS011;2075;51.062;6.920;2023-03-01T04:54:02;17.43;;;9.93;;
4122;SDS011;2075;51.062;6.920;2023-03-01T04:56:52;15.63;;;9.03;;
4122;SDS011;2075;51.062;6.920;2023-03-01T04:59:39;24.27;;;9.77;;
4122;SDS011;2075;51.062;6.920;2023-03-01T05:02:25;18.47;;;10.10;;
4122;SDS011;2075;51.062;6.920;2023-03-01T05:05:10;18.87;;;10.40;;
4122;SDS011;2075;51.062;6.920;2023-03-01T05:07:57;16.40;;;9.40;;
4122;SDS011;2075;51.062;6.920;2023-03-01T05:10:44;19.87;;;10.57;;
4122;SDS011;2075;51.062;6.920;2023-03-01T05:13:31;17.60;;;10.33;;
4122;SDS011;2075;51.062;6.920;2023-03-01T05:16:18;20.30;;;12.50;;
4122;SDS011;2075;51.062;6.920;2023-03-01T05:19:04;22.70;;;11.33;;
4122;SDS011;2075;51.062;6.920;2023-03-01T05:21:54;18.60;;;10.90;;
4122;SDS011;2075;51.062;6.920;2023-03-01T05:24:49;19.53;;;10.20;;
4122;SDS011;2075;51.062;6.920;2023-03-01T05:27:34;21.07;;;10.23;;
4122;SDS011;2075;51.062;6.920;2023-03-01T05:30:20;20.93;;;11.80;;
4122;SDS011;2075;51.062;6.920;2023-03-01T05:33:07;19.60;;;10.43;;
4122;SDS011;2075;51.062;6.920;2023-03-01T05:35:59;18.50;;;9.70;;
4122;SDS011;2075;51.062;6.920;2023-03-01T05:38:44;17.43;;;9.50;;
4122;SDS011;2075;51.062;6.920;2023-03-01T05:41:30;22.00;;;10.90;;
4122;SDS011;2075;51.062;6.920;2023-03-01T05:44:15;31.03;;;11.57;;
4122;SDS011;2075;51.062;6.920;2023-03-01T05:47:01;31.60;;;10.43;;
4122;SDS011;2075;51.062;6.920;2023-03-01T05:49:48;22.53;;;11.33;;
4122;SDS011;2075;51.062;6.920;2023-03-01T05:52:34;21.03;;;10.73;;
4122;SDS011;2075;51.062;6.920;2023-03-01T05:55:20;21.10;;;10.90;;
4122;SDS011;2075;51.062;6.920;2023-03-01T05:58:06;21.90;;;11.77;;
4122;SDS011;2075;51.062;6.920;2023-03-01T06:00:54;20.80;;;10.77;;
4122;SDS011;2075;51.062;6.920;2023-03-01T06:03:40;19.33;;;10.30;;
4122;SDS011;2075;51.062;6.920;2023-03-01T06:06:27;20.27;;;10.90;;
4122;SDS011;2075;51.062;6.920;2023-03-01T06:09:13;20.47;;;10.50;;
4122;SDS011;2075;51.062;6.920;2023-03-01T06:11:58;23.93;;;11.53;;
4122;SDS011;2075;51.062;6.920;2023-03-01T06:14:44;22.03;;;11.23;;
4122;SDS011;2075;51.062;6.920;2023-03-01T06:17:31;20.50;;;11.93;;
4122;SDS011;2075;51.062;6.920;2023-03-01T06:20:22;19.60;;;10.60;;
4122;SDS011;2075;51.062;6.920;2023-03-01T06:23:10;28.20;;;11.80;;
4122;SDS011;2075;51.062;6.920;2023-03-01T06:25:55;30.47;;;14.10;;
4122;SDS011;2075;51.062;6.920;2023-03-01T06:28:41;26.13;;;11.87;;
4122;SDS011;2075;51.062;6.920;2023-03-01T06:31:26;21.70;;;11.40;;
4122;SDS011;2075;51.062;6.920;2023-03-01T06:34:11;23.07;;;11.30;;
4122;SDS011;2075;51.062;6.920;2023-03-01T06:36:57;24.27;;;12.10;;
4122;SDS011;2075;51.062;6.920;2023-03-01T06:39:44;23.33;;;11.80;;
4122;SDS011;2075;51.062;6.920;2023-03-01T06:42:30;20.03;;;12.20;;
4122;SDS011;2075;51.062;6.920;2023-03-01T06:45:15;25.20;;;13.20;;
4122;SDS011;2075;51.062;6.920;2023-03-01T06:48:03;24.00;;;11.87;;
4122;SDS011;2075;51.062;6.920;2023-03-01T06:50:49;33.53;;;15.13;;
4122;SDS011;2075;51.062;6.920;2023-03-01T06:53:34;33.77;;;16.03;;
4122;SDS011;2075;51.062;6.920;2023-03-01T06:56:21;23.00;;;12.27;;
4122;SDS011;2075;51.062;6.920;2023-03-01T06:59:06;23.50;;;12.00;;
4122;SDS011;2075;51.062;6.920;2023-03-01T07:01:52;21.53;;;12.37;;
4122;SDS011;2075;51.062;6.920;2023-03-01T07:04:37;26.77;;;12.60;;
4122;SDS011;2075;51.062;6.920;2023-03-01T07:07:23;29.23;;;13.57;;
4122;SDS011;2075;51.062;6.920;2023-03-01T07:10:09;81.27;;;30.63;;
4122;SDS011;2075;51.062;6.920;2023-03-01T07:12:56;45.27;;;20.93;;
4122;SDS011;2075;51.062;6.920;2023-03-01T07:15:42;31.00;;;17.13;;
4122;SDS011;2075;51.062;6.920;2023-03-01T07:18:28;25.57;;;15.23;;
4122;SDS011;2075;51.062;6.920;2023-03-01T07:21:14;21.83;;;13.03;;
4122;SDS011;2075;51.062;6.920;2023-03-01T07:24:00;20.60;;;12.47;;
4122;SDS011;2075;51.062;6.920;2023-03-01T07:26:47;26.83;;;14.37;;
4122;SDS011;2075;51.062;6.920;2023-03-01T07:29:38;21.57;;;13.90;;
4122;SDS011;2075;51.062;6.920;2023-03-01T07:32:23;27.37;;;14.33;;
4122;SDS011;2075;51.062;6.920;2023-03-01T07:35:09;20.23;;;12.90;;
4122;SDS011;2075;51.062;6.920;2023-03-01T07:37:54;18.57;;;12.07;;
4122;SDS011;2075;51.062;6.920;2023-03-01T07:40:40;18.27;;;12.20;;
4122;SDS011;2075;51.062;6.920;2023-03-01T07:43:25;17.37;;;10.67;;
4122;SDS011;2075;51.062;6.920;2023-03-01T07:46:12;20.77;;;11.37;;
4122;SDS011;2075;51.062;6.920;2023-03-01T07:48:57;21.50;;;11.83;;
4122;SDS011;2075;51.062;6.920;2023-03-01T07:51:43;19.80;;;12.27;;
4122;SDS011;2075;51.062;6.920;2023-03-01T07:54:28;21.93;;;12.70;;
4122;SDS011;2075;51.062;6.920;2023-03-01T07:57:14;19.70;;;12.37;;
4122;SDS011;2075;51.062;6.920;2023-03-01T07:59:59;23.53;;;13.00;;
4122;SDS011;2075;51.062;6.920;2023-03-01T08:02:59;20.73;;;10.93;;
4122;SDS011;2075;51.062;6.920;2023-03-01T08:05:45;24.87;;;11.73;;
4122;SDS011;2075;51.062;6.920;2023-03-01T08:08:31;23.77;;;12.60;;
4122;SDS011;2075;51.062;6.920;2023-03-01T08:11:16;21.80;;;11.40;;
4122;SDS011;2075;51.062;6.920;2023-03-01T08:14:02;21.10;;;11.80;;
4122;SDS011;2075;51.062;6.920;2023-03-01T08:16:48;24.60;;;11.77;;
4122;SDS011;2075;51.062;6.920;2023-03-01T08:19:35;20.03;;;11.63;;
4122;SDS011;2075;51.062;6.920;2023-03-01T08:22:21;22.10;;;10.57;;
4122;SDS011;2075;51.062;6.920;2023-03-01T08:25:06;30.73;;;11.90;;
4122;SDS011;2075;51.062;6.920;2023-03-01T08:27:52;33.40;;;11.77;;
4122;SDS011;2075;51.062;6.920;2023-03-01T08:30:37;30.87;;;11.70;;
4122;SDS011;2075;51.062;6.920;2023-03-01T08:33:23;25.30;;;10.47;;
4122;SDS011;2075;51.062;6.920;2023-03-01T08:36:10;19.77;;;11.07;;
4122;SDS011;2075;51.062;6.920;2023-03-01T08:38:55;28.43;;;12.07;;
4122;SDS011;2075;51.062;6.920;2023-03-01T08:41:41;18.57;;;10.80;;
4122;SDS011;2075;51.062;6.920;2023-03-01T08:44:27;20.83;;;10.77;;
4122;SDS011;2075;51.062;6.920;2023-03-01T08:47:13;20.73;;;10.70;;
4122;SDS011;2075;51.062;6.920;2023-03-01T08:49:59;31.03;;;10.70;;
4122;SDS011;2075;51.062;6.920;2023-03-01T08:52:45;22.73;;;10.17;;
4122;SDS011;2075;51.062;6.920;2023-03-01T08:55:31;18.57;;;10.43;;
4122;SDS011;2075;51.062;6.920;2023-03-01T08:58:16;17.20;;;9.63;;
4122;SDS011;2075;51.062;6.920;2023-03-01T09:01:06;20.47;;;10.33;;
4122;SDS011;2075;51.062;6.920;2023-03-01T09:03:52;19.23;;;9.33;;
4122;SDS011;2075;51.062;6.920;2023-03-01T09:06:37;16.03;;;9.60;;
4122;SDS011;2075;51.062;6.920;2023-03-01T09:09:24;21.33;;;9.97;;
4122;SDS011;2075;51.062;6.920;2023-03-01T09:12:10;18.13;;;10.60;;
4122;SDS011;2075;51.062;6.920;2023-03-01T09:14:55;18.63;;;10.50;;
4122;SDS011;2075;51.062;6.920;2023-03-01T09:17:41;15.13;;;8.90;;
4122;SDS011;2075;51.062;6.920;2023-03-01T09:20:27;18.13;;;10.83;;
4122;SDS011;2075;51.062;6.920;2023-03-01T09:23:12;19.37;;;9.80;;
4122;SDS011;2075;51.062;6.920;2023-03-01T09:26:01;16.27;;;8.50;;
4122;SDS011;2075;51.062;6.920;2023-03-01T09:28:48;15.20;;;8.50;;
4122;SDS011;2075;51.062;6.920;2023-03-01T09:31:33;14.90;;;9.20;;
4122;SDS011;2075;51.062;6.920;2023-03-01T09:34:19;17.10;;;8.97;;
4122;SDS011;2075;51.062;6.920;2023-03-01T09:37:06;14.37;;;8.67;;
4122;SDS011;2075;51.062;6.920;2023-03-01T09:39:52;16.90;;;9.30;;
4122;SDS011;2075;51.062;6.920;2023-03-01T09:42:44;15.17;;;9.03;;
4122;SDS011;2075;51.062;6.920;2023-03-01T09:45:33;19.47;;;9.67;;
4122;SDS011;2075;51.062;6.920;2023-03-01T09:48:21;14.77;;;8.90;;
4122;SDS011;2075;51.062;6.920;2023-03-01T09:51:09;16.00;;;9.10;;
4122;SDS011;2075;51.062;6.920;2023-03-01T09:54:00;19.33;;;9.40;;
4122;SDS011;2075;51.062;6.920;2023-03-01T09:56:51;16.10;;;9.63;;
4122;SDS011;2075;51.062;6.920;2023-03-01T10:03:02;15.33;;;9.10;;
4122;SDS011;2075;51.062;6.920;2023-03-01T10:05:57;24.80;;;10.10;;
4122;SDS011;2075;51.062;6.920;2023-03-01T10:08:47;18.17;;;8.47;;
4122;SDS011;2075;51.062;6.920;2023-03-01T10:11:41;14.03;;;8.40;;
4122;SDS011;2075;51.062;6.920;2023-03-01T10:14:32;11.20;;;7.97;;
4122;SDS011;2075;51.062;6.920;2023-03-01T10:17:25;14.00;;;8.40;;
4122;SDS011;2075;51.062;6.920;2023-03-01T10:20:18;16.77;;;9.10;;
4122;SDS011;2075;51.062;6.920;2023-03-01T10:23:05;14.43;;;9.20;;
4122;SDS011;2075;51.062;6.920;2023-03-01T10:25:56;15.93;;;9.80;;
4122;SDS011;2075;51.062;6.920;2023-03-01T10:28:57;20.63;;;9.57;;
4122;SDS011;2075;51.062;6.920;2023-03-01T10:31:48;20.83;;;9.27;;
4122;SDS011;2075;51.062;6.920;2023-03-01T10:34:36;14.53;;;8.80;;
4122;SDS011;2075;51.062;6.920;2023-03-01T10:37:22;14.20;;;9.20;;
4122;SDS011;2075;51.062;6.920;2023-03-01T10:40:10;17.13;;;9.43;;
4122;SDS011;2075;51.062;6.920;2023-03-01T10:42:57;15.40;;;8.87;;
4122;SDS011;2075;51.062;6.920;2023-03-01T10:45:44;15.83;;;9.03;;
4122;SDS011;2075;51.062;6.920;2023-03-01T10:48:29;15.43;;;8.90;;
4122;SDS011;2075;51.062;6.920;2023-03-01T10:51:17;16.07;;;9.30;;
4122;SDS011;2075;51.062;6.920;2023-03-01T10:54:04;15.20;;;9.13;;
4122;SDS011;2075;51.062;6.920;2023-03-01T10:56:52;13.77;;;8.57;;
4122;SDS011;2075;51.062;6.920;2023-03-01T10:59:40;14.40;;;9.13;;
4122;SDS011;2075;51.062;6.920;2023-03-01T11:02:26;16.50;;;9.70;;
4122;SDS011;2075;51.062;6.920;2023-03-01T11:05:17;13.20;;;8.60;;
4122;SDS011;2075;51.062;6.920;2023-03-01T11:08:10;13.50;;;8.27;;
4122;SDS011;2075;51.062;6.920;2023-03-01T11:11:03;18.43;;;8.83;;
4122;SDS011;2075;51.062;6.920;2023-03-01T11:13:51;16.43;;;8.47;;
4122;SDS011;2075;51.062;6.920;2023-03-01T11:16:39;13.27;;;8.93;;
4122;SDS011;2075;51.062;6.920;2023-03-01T11:19:26;15.10;;;8.73;;
4122;SDS011;2075;51.062;6.920;2023-03-01T11:22:12;11.37;;;8.13;;
4122;SDS011;2075;51.062;6.920;2023-03-01T11:24:59;15.53;;;9.17;;
4122;SDS011;2075;51.062;6.920;2023-03-01T11:27:46;17.90;;;10.00;;
4122;SDS011;2075;51.062;6.920;2023-03-01T11:30:33;33.13;;;17.63;;
4122;SDS011;2075;51.062;6.920;2023-03-01T11:33:24;15.93;;;9.00;;
4122;SDS011;2075;51.062;6.920;2023-03-01T11:36:25;13.03;;;8.13;;
4122;SDS011;2075;51.062;6.920;2023-03-01T11:39:18;22.90;;;12.73;;
4122;SDS011;2075;51.062;6.920;2023-03-01T11:42:12;13.60;;;9.33;;
4122;SDS011;2075;51.062;6.920;2023-03-01T11:45:06;31.17;;;13.30;;
4122;SDS011;2075;51.062;6.920;2023-03-01T11:48:04;19.13;;;9.40;;
4122;SDS011;2075;51.062;6.920;2023-03-01T11:51:03;17.40;;;8.83;;
4122;SDS011;2075;51.062;6.920;2023-03-01T11:53:57;15.63;;;8.60;;
4122;SDS011;2075;51.062;6.920;2023-03-01T11:56:50;14.80;;;9.03;;
4122;SDS011;2075;51.062;6.920;2023-03-01T11:59:47;14.97;;;9.40;;
4122;SDS011;2075;51.062;6.920;2023-03-01T12:02:56;16.77;;;9.00;;
4122;SDS011;2075;51.062;6.920;2023-03-01T12:06:20;15.87;;;8.00;;
4122;SDS011;2075;51.062;6.920;2023-03-01T12:09:17;16.70;;;9.07;;
4122;SDS011;2075;51.062;6.920;2023-03-01T12:12:31;14.80;;;8.60;;
4122;SDS011;2075;51.062;6.920;2023-03-01T12:15:33;15.13;;;8.50;;
4122;SDS011;2075;51.062;6.920;2023-03-01T12:18:51;13.90;;;8.20;;
4122;SDS011;2075;51.062;6.920;2023-03-01T12:21:51;18.13;;;8.30;;
4122;SDS011;2075;51.062;6.920;2023-03-01T12:25:07;17.03;;;8.13;;
4122;SDS011;2075;51.062;6.920;2023-03-01T12:28:14;13.57;;;8.87;;
4122;SDS011;2075;51.062;6.920;2023-03-01T12:31:21;13.03;;;8.47;;
4122;SDS011;2075;51.062;6.920;2023-03-01T12:34:38;13.53;;;8.10;;
4122;SDS011;2075;51.062;6.920;2023-03-01T12:37:44;12.83;;;8.40;;
4122;SDS011;2075;51.062;6.920;2023-03-01T12:40:42;14.03;;;8.60;;
4122;SDS011;2075;51.062;6.920;2023-03-01T12:43:41;13.17;;;9.43;;
4122;SDS011;2075;51.062;6.920;2023-03-01T12:46:44;14.03;;;8.97;;
4122;SDS011;2075;51.062;6.920;2023-03-01T12:49:46;17.20;;;8.90;;
4122;SDS011;2075;51.062;6.920;2023-03-01T12:52:37;12.20;;;8.77;;
4122;SDS011;2075;51.062;6.920;2023-03-01T12:55:28;13.60;;;7.77;;
4122;SDS011;2075;51.062;6.920;2023-03-01T12:58:19;12.60;;;8.03;;
4122;SDS011;2075;51.062;6.920;2023-03-01T13:01:13;15.53;;;7.20;;
4122;SDS011;2075;51.062;6.920;2023-03-01T13:04:12;14.00;;;8.20;;
4122;SDS011;2075;51.062;6.920;2023-03-01T13:07:04;14.20;;;8.57;;
4122;SDS011;2075;51.062;6.920;2023-03-01T13:10:14;16.87;;;7.57;;
4122;SDS011;2075;51.062;6.920;2023-03-01T13:13:12;16.50;;;9.67;;
4122;SDS011;2075;51.062;6.920;2023-03-01T13:19:23;20.30;;;9.80;;
4122;SDS011;2075;51.062;6.920;2023-03-01T13:22:25;14.90;;;9.47;;
4122;SDS011;2075;51.062;6.920;2023-03-01T13:25:16;14.27;;;9.20;;
4122;SDS011;2075;51.062;6.920;2023-03-01T13:34:56;15.10;;;8.23;;
4122;SDS011;2075;51.062;6.920;2023-03-01T13:37:43;11.87;;;7.77;;
4122;SDS011;2075;51.062;6.920;2023-03-01T13:43:43;13.60;;;8.07;;
4122;SDS011;2075;51.062;6.920;2023-03-01T13:46:31;14.70;;;7.90;;
4122;SDS011;2075;51.062;6.920;2023-03-01T13:49:18;11.57;;;7.53;;
4122;SDS011;2075;51.062;6.920;2023-03-01T13:52:14;12.10;;;8.70;;
4122;SDS011;2075;51.062;6.920;2023-03-01T13:55:18;10.93;;;7.70;;
4122;SDS011;2075;51.062;6.920;2023-03-01T13:58:14;15.23;;;8.10;;
4122;SDS011;2075;51.062;6.920;2023-03-01T14:01:04;14.77;;;9.03;;
4122;SDS011;2075;51.062;6.920;2023-03-01T14:03:52;15.70;;;7.97;;
4122;SDS011;2075;51.062;6.920;2023-03-01T14:06:39;13.37;;;7.57;;
4122;SDS011;2075;51.062;6.920;2023-03-01T14:09:26;12.33;;;7.20;;
4122;SDS011;2075;51.062;6.920;2023-03-01T14:12:21;13.60;;;7.30;;
4122;SDS011;2075;51.062;6.920;2023-03-01T14:15:16;16.53;;;7.80;;
4122;SDS011;2075;51.062;6.920;2023-03-01T14:18:05;12.20;;;8.40;;
4122;SDS011;2075;51.062;6.920;2023-03-01T14:20:55;13.10;;;8.57;;
4122;SDS011;2075;51.062;6.920;2023-03-01T14:23:41;18.00;;;9.60;;
4122;SDS011;2075;51.062;6.920;2023-03-01T14:26:28;15.63;;;8.87;;
4122;SDS011;2075;51.062;6.920;2023-03-01T14:29:26;15.30;;;8.13;;
4122;SDS011;2075;51.062;6.920;2023-03-01T14:32:19;13.67;;;8.00;;
4122;SDS011;2075;51.062;6.920;2023-03-01T14:35:18;15.70;;;7.53;;
4122;SDS011;2075;51.062;6.920;2023-03-01T14:38:19;12.73;;;7.63;;
4122;SDS011;2075;51.062;6.920;2023-03-01T14:41:06;10.40;;;7.00;;
4122;SDS011;2075;51.062;6.920;2023-03-01T14:43:57;12.30;;;8.23;;
4122;SDS011;2075;51.062;6.920;2023-03-01T14:46:45;12.87;;;8.60;;
4122;SDS011;2075;51.062;6.920;2023-03-01T14:49:31;12.07;;;6.77;;
4122;SDS011;2075;51.062;6.920;2023-03-01T14:52:18;13.00;;;7.87;;
4122;SDS011;2075;51.062;6.920;2023-03-01T14:55:07;12.13;;;7.47;;
4122;SDS011;2075;51.062;6.920;2023-03-01T14:58:02;9.80;;;6.97;;
4122;SDS011;2075;51.062;6.920;2023-03-01T15:00:51;11.00;;;7.07;;
4122;SDS011;2075;51.062;6.920;2023-03-01T15:03:39;10.73;;;7.53;;
4122;SDS011;2075;51.062;6.920;2023-03-01T15:06:27;13.27;;;8.60;;
4122;SDS011;2075;51.062;6.920;2023-03-01T15:09:14;13.97;;;9.07;;
4122;SDS011;2075;51.062;6.920;2023-03-01T15:12:00;12.63;;;7.80;;
4122;SDS011;2075;51.062;6.920;2023-03-01T15:18:26;13.33;;;7.67;;
4122;SDS011;2075;51.062;6.920;2023-03-01T15:21:15;14.87;;;7.80;;
4122;SDS011;2075;51.062;6.920;2023-03-01T15:24:03;8.53;;;6.53;;
4122;SDS011;2075;51.062;6.920;2023-03-01T15:27:03;13.37;;;7.70;;
4122;SDS011;2075;51.062;6.920;2023-03-01T15:29:51;15.37;;;7.30;;
4122;SDS011;2075;51.062;6.920;2023-03-01T15:32:40;9.20;;;6.20;;
4122;SDS011;2075;51.062;6.920;2023-03-01T15:35:37;20.93;;;8.90;;
4122;SDS011;2075;51.062;6.920;2023-03-01T15:38:36;21.17;;;8.13;;
4122;SDS011;2075;51.062;6.920;2023-03-01T15:41:37;11.57;;;7.30;;
4122;SDS011;2075;51.062;6.920;2023-03-01T15:44:33;13.03;;;7.63;;
4122;SDS011;2075;51.062;6.920;2023-03-01T15:47:25;13.93;;;7.83;;
4122;SDS011;2075;51.062;6.920;2023-03-01T15:50:15;11.40;;;7.00;;
4122;SDS011;2075;51.062;6.920;2023-03-01T15:53:05;10.07;;;6.70;;
4122;SDS011;2075;51.062;6.920;2023-03-01T15:55:54;11.67;;;6.90;;
4122;SDS011;2075;51.062;6.920;2023-03-01T15:58:40;12.63;;;7.47;;
4122;SDS011;2075;51.062;6.920;2023-03-01T16:01:26;10.07;;;6.97;;
4122;SDS011;2075;51.062;6.920;2023-03-01T16:04:13;12.67;;;7.20;;
4122;SDS011;2075;51.062;6.920;2023-03-01T16:07:04;11.43;;;7.60;;
4122;SDS011;2075;51.062;6.920;2023-03-01T16:09:52;15.00;;;7.03;;
4122;SDS011;2075;51.062;6.920;2023-03-01T16:12:37;16.73;;;8.83;;
4122;SDS011;2075;51.062;6.920;2023-03-01T16:15:24;10.13;;;5.90;;
4122;SDS011;2075;51.062;6.920;2023-03-01T16:18:12;13.07;;;6.63;;
4122;SDS011;2075;51.062;6.920;2023-03-01T16:20:57;15.33;;;7.80;;
4122;SDS011;2075;51.062;6.920;2023-03-01T16:23:43;11.93;;;6.10;;
4122;SDS011;2075;51.062;6.920;2023-03-01T16:26:30;24.93;;;7.77;;
4122;SDS011;2075;51.062;6.920;2023-03-01T16:29:16;10.00;;;6.53;;
4122;SDS011;2075;51.062;6.920;2023-03-01T16:32:01;12.90;;;7.23;;
4122;SDS011;2075;51.062;6.920;2023-03-01T16:34:47;11.40;;;6.60;;
4122;SDS011;2075;51.062;6.920;2023-03-01T16:37:33;11.30;;;6.80;;
4122;SDS011;2075;51.062;6.920;2023-03-01T16:40:21;8.93;;;5.80;;
4122;SDS011;2075;51.062;6.920;2023-03-01T16:43:11;12.63;;;6.47;;
4122;SDS011;2075;51.062;6.920;2023-03-01T16:45:56;10.23;;;6.20;;
4122;SDS011;2075;51.062;6.920;2023-03-01T16:48:42;8.93;;;5.97;;
4122;SDS011;2075;51.062;6.920;2023-03-01T16:51:28;8.30;;;5.60;;
4122;SDS011;2075;51.062;6.920;2023-03-01T16:54:14;14.87;;;7.07;;
4122;SDS011;2075;51.062;6.920;2023-03-01T16:56:59;10.57;;;6.90;;
4122;SDS011;2075;51.062;6.920;2023-03-01T16:59:46;17.03;;;8.57;;
4122;SDS011;2075;51.062;6.920;2023-03-01T17:02:31;11.27;;;6.10;;
4122;SDS011;2075;51.062;6.920;2023-03-01T17:05:16;14.40;;;6.43;;
4122;SDS011;2075;51.062;6.920;2023-03-01T17:08:04;12.73;;;7.80;;
4122;SDS011;2075;51.062;6.920;2023-03-01T17:10:50;11.30;;;6.70;;
4122;SDS011;2075;51.062;6.920;2023-03-01T17:13:35;11.70;;;7.20;;
4122;SDS011;2075;51.062;6.920;2023-03-01T17:16:22;15.30;;;6.10;;
4122;SDS011;2075;51.062;6.920;2023-03-01T17:19:07;12.63;;;6.87;;
4122;SDS011;2075;51.062;6.920;2023-03-01T17:21:53;12.00;;;7.00;;
4122;SDS011;2075;51.062;6.920;2023-03-01T17:24:39;14.17;;;7.50;;
4122;SDS011;2075;51.062;6.920;2023-03-01T17:27:25;13.27;;;6.57;;
4122;SDS011;2075;51.062;6.920;2023-03-01T17:30:11;12.83;;;8.93;;